Eatonville, WA

3:26 AM PDT on August 28, 2016 (GMT -0700)
APRSWXNET | | Change Station

Elev 600 ft 46.92 °N, 122.36 °W | Updated 367 days ago

Partly Cloudy
Partly Cloudy
52 °F
Feels Like 52 °F
N
0
Wind Variable Wind from NW
Gusts mph

Today
High -- | Low -- °F
--% Chance of Precip.
Yesterday
High -- | Low -- °F
Precip. -- in
Pressure 30.06 in
Visibility -9999.0 miles
Clouds Overcast 2300 ft
Dew Point 51 °F
Humidity 94%
Rainfall in
Snow Depth Not available.
6:24 AM 7:55 PM
Waning Crescent, 17% visible
METAR KPLU 281015Z AUTO 00000KT OVC023 13/12 A3006 RMK AO2
Pressure 30.06 in
Visibility -9999.0 miles
Clouds Overcast 2300 ft
Dew Point 51 °F
Humidity 94%
Rainfall in
Snow Depth Not available.
6:24 AM 7:55 PM
Waning Crescent, 17% visible
METAR KPLU 281015Z AUTO 00000KT OVC023 13/12 A3006 RMK AO2

10-Day Weather Forecast

Almanac

Astronomy

Aug. 28, 2016 Rise Set
Actual Time
Civil Twilight
Nautical Twilight
Astronomical Twilight
Moon
Length of Visible Light
Length of Day
Tomorrow will be .
, % of the Moon is Illuminated

Today's Extremes

State Highs State Lows

Community

WunderPhotos

Upload Photos

1,935,541 photos uploaded!

WunderBlog® & News

Nearby

Air Quality

  Air Quality AQ Index Pollutant
Not available.

Snow Depth

Station Depth Elevation

Earthquake Activity

City Distance Mag. Time & Date
Minimum magnitude displayed is 2.5.

Coastal Water Temperatures

Place Temperature

Stations

Nearby Weather Stations

Station Location Temp. Windchill Dew Point Humidity Wind Precip. Elev Updated Type
                   

Watches & Warnings

There are currently no watches in effect.